Murrells Inlet, SC

12:00 AM EST on February 12, 2016 (GMT -0500)
Palm Bay | | Change Station
CLOSE
Current Station
Personal Weather Station
Location: Murrells Inlet, SC
Elevation: 18 ft
Nearby Weather Stations
Active Advisory: Flood Warning

Elev 18 ft 33.57 °N, 79.05 °W | Updated 5 seconds ago

Overcast
Overcast
38.4 °F
Feels Like 38 °F
N
0.0
Wind Variable Wind from North
Gusts 0.0 mph

Today
High -- | Low -- °F
--% Chance of Precip.
Yesterday
High -- | Low -- °F
Precip. -- in
Pressure 30.28 in
Visibility 10.0 miles
Clouds Overcast 7000 ft
Windchill 38 °F
Dew Point 37 °F
Humidity 94%
Rainfall 0.00 in
Snow Depth Not available.
7:03 AM 5:57 PM
Waxing Crescent, 17% visible
METAR KMYR 120455Z AUTO 00000KT 10SM OVC070 04/M01 A3028 RMK AO1 401001020
Pressure 30.28 in
Visibility 10.0 miles
Clouds Overcast 7000 ft
Windchill 38 °F
Dew Point 37 °F
Humidity 94%
Rainfall 0.00 in
Snow Depth Not available.
7:03 AM 5:57 PM
Waxing Crescent, 17% visible
METAR KMYR 120455Z AUTO 00000KT 10SM OVC070 04/M01 A3028 RMK AO1 401001020

10-Day Weather Forecast

Almanac

Astronomy

Feb. 12, 2016 Rise Set
Actual Time
Civil Twilight
Nautical Twilight
Astronomical Twilight
Moon
Length of Visible Light
Length of Day
Tomorrow will be .
, % of the Moon is Illuminated

Today's Extremes

State Highs State Lows

Community

WunderPhotos

Upload Photos

1,892,268 photos uploaded!

WunderBlog® & News

Nearby

Air Quality

  Air Quality AQ Index Pollutant
Not available.

Snow Depth

Station Depth Elevation

Earthquake Activity

City Distance Mag. Time & Date
Minimum magnitude displayed is 2.5.

Coastal Water Temperatures

Place Temperature

Stations

Nearby Weather Stations

Station Location Temp. Windchill Dew Point Humidity Wind Precip. Elev Updated Type
                   

Watches & Warnings

Flood Warning
Issued: 7:59 PM EST Feb. 11, 2016 – National Weather Service

The Flood Warning continues for
the Santee river near Jamestown.
* At 7 PM Thursday the stage was 13.7 feet.
* Flood stage is 10.0 feet.
* Minor flooding is occurring.
* Forecast, the river will continue to fall.
* At 12.0 feet, several dirt logging roads are impassable.


Lat... Lon 3347 8002 3354 7998 3325 7937 3321 7938
          3320 7951 3329 7976